Decoded Metar for EIDL (DONEGAL in IRELAND) (IATA:N/A) | Meteo·Mobile Aviation Weather
aviador You're here:

EIDL Decoded Metar

DONEGAL in IRELAND
Report Time2018-12-16 10:30:00
UTC Time2018-12-16 11:10:41
Flight Rules vfr VFR
Wind170° at 14 kt
W.Decomp.*RWY 21: 11.3 kt HW 8.2 kt LCW
W.Rank170° ranks 9
Current wind is above 170° avg. (13.0)
Visibility9999 m
Phenomena:N/A
Clouds:N/A
Expected CloudBase > 800 ft AGL from Temp-Dew spread
CeilingNone
Temp05°C (ISA -10)
Dew Point03°C (87% RH)
AAT-1.5°C
QNH0995 hPa
Density Alt-453 ft
Elevation29 ft
Report Wrong Elevation
Raw Report
METAR EIDL 161030Z 17014KT CAVOK 05/03 Q0995=

Extra information for EIDL:More info

Metar Taf Metar & Taf Last 4 Metars F.Rules Stats Wind Profile Meteogram Temp Stats Airport Information Weather charts Add Link Nearby VenuesMetar ALERT Operation Metar Decoded Social comments